< < Back
Terminal Aerodrome Forecast


Current Version              Previous Versions:   1  2  3  4  5  6  7  8  9  

Terminal Aerodrome Forecast

363
FTUS42 KJAX 301510 AAB
TAFGNV
TAF AMD
KGNV 301510Z 3015/0112 24006KT P6SM VCTS BKN035CB
      TEMPO 3017/3020 2SM TSRA OVC020CB
     FM010000 21005KT P6SM VCSH BKN050 BKN120
     FM010300 VRB03KT P6SM SCT120 BKN250=



Latest METAR

965
SAUS70 KWBC 302100 RRW
MTRGNV
METAR KGNV 302053Z 02003KT 10SM FEW046 FEW095 29/23 A3000 RMK AO2 LTG
DSNT E AND SE RAB32E44 SLP156 P0000 60000 T02890228 58003


USA.gov is the U.S. government's official web portal to all federal, state and local government web resources and services.